Terminal Aerodrome Forecast
Issued by NWS

Home | Current Version | Previous Version | Text Only | Print | Product List | Glossary On
Versions: 1 2 3 4 5 6 7 8 9 10 11 12 13 14 15
000
FTUS46 KSEW 231700
TAFCLM
TAF
KCLM 231736Z 2318/2418 01005KT P6SM BKN200
     FM240100 29006KT P6SM BKN150
     FM241400 28003KT P6SM BCFG SCT010 BKN150
      TEMPO 2414/2416 3SM BCFG BKN006 BKN150
     FM241700 03004KT P6SM BKN150=

USA.gov is the U.S. government's official web portal to all federal, state and local government web resources and services.